createdAt,value
2018-07-30T00:00:56.493Z,100647.00
2018-07-30T00:03:25.666Z,100645.00
2018-07-30T00:05:54.802Z,100645.00
2018-07-30T00:08:23.944Z,100640.00
2018-07-30T00:10:53.330Z,100642.00
2018-07-30T00:13:22.594Z,100648.00
2018-07-30T00:15:51.690Z,100637.00
2018-07-30T00:18:20.881Z,100640.00
2018-07-30T00:20:49.933Z,100645.00
2018-07-30T00:23:18.986Z,100636.00
2018-07-30T00:25:48.102Z,100637.00
2018-07-30T00:28:17.594Z,100628.00
2018-07-30T00:30:46.480Z,100632.00
2018-07-30T00:33:15.749Z,100630.00
2018-07-30T00:35:44.916Z,100646.00
2018-07-30T00:38:14.063Z,100639.00
2018-07-30T00:40:43.173Z,100645.00
2018-07-30T00:43:12.242Z,100640.00
2018-07-30T00:45:41.408Z,100634.00
2018-07-30T00:48:10.586Z,100626.00
2018-07-30T00:50:39.806Z,100626.00
2018-07-30T00:53:08.968Z,100628.00
2018-07-30T00:55:38.053Z,100626.00
2018-07-30T00:58:07.145Z,100628.00
2018-07-30T01:00:36.285Z,100619.00
2018-07-30T01:03:05.438Z,100625.00
2018-07-30T01:05:34.332Z,100631.00
2018-07-30T01:08:03.585Z,100630.00
2018-07-30T01:10:32.703Z,100637.00
2018-07-30T01:13:01.787Z,100635.00
2018-07-30T01:15:30.903Z,100638.00
2018-07-30T01:18:00.013Z,100639.00
2018-07-30T01:20:29.134Z,100635.00
2018-07-30T01:22:58.176Z,100635.00
2018-07-30T01:25:27.457Z,100633.00
2018-07-30T01:27:56.507Z,100636.00
2018-07-30T01:30:25.635Z,100629.00
2018-07-30T01:32:54.817Z,100641.00
2018-07-30T01:35:23.864Z,100644.00
2018-07-30T01:37:53.109Z,100634.00
2018-07-30T01:40:22.273Z,100645.00
2018-07-30T01:42:51.357Z,100640.00
2018-07-30T01:45:20.535Z,100640.00
2018-07-30T01:47:49.692Z,100641.00
2018-07-30T01:50:18.774Z,100643.00
2018-07-30T01:52:47.907Z,100645.00
2018-07-30T01:55:16.988Z,100647.00
2018-07-30T01:57:46.067Z,100644.00
2018-07-30T02:00:15.113Z,100646.00
2018-07-30T02:02:44.596Z,100646.00
2018-07-30T02:05:13.651Z,100639.00
2018-07-30T02:07:43.195Z,100638.00
2018-07-30T02:10:12.790Z,100642.00
2018-07-30T02:12:41.965Z,100653.00
2018-07-30T02:15:11.046Z,100651.00
2018-07-30T02:17:40.158Z,100650.00
2018-07-30T02:20:09.253Z,100648.00
2018-07-30T02:22:38.441Z,100639.00
2018-07-30T02:25:08.677Z,100642.00
2018-07-30T02:27:37.814Z,100649.00
2018-07-30T02:30:08.515Z,100642.00
2018-07-30T02:32:37.832Z,100644.00
2018-07-30T02:35:08.816Z,100644.00
2018-07-30T02:37:37.922Z,100638.00
2018-07-30T02:40:07.663Z,100641.00
2018-07-30T02:42:36.790Z,100646.00
2018-07-30T02:45:06.706Z,100642.00
2018-07-30T02:47:35.808Z,100639.00
2018-07-30T02:50:05.995Z,100644.00
2018-07-30T02:52:35.123Z,100652.00
2018-07-30T02:55:04.206Z,100653.00
2018-07-30T02:57:33.330Z,100652.00
2018-07-30T03:00:02.509Z,100648.00
2018-07-30T03:02:31.867Z,100651.00
2018-07-30T03:05:00.999Z,100650.00
2018-07-30T03:07:31.173Z,100650.00
2018-07-30T03:10:00.268Z,100653.00
2018-07-30T03:12:29.321Z,100648.00
2018-07-30T03:14:58.367Z,100653.00
2018-07-30T03:17:27.454Z,100657.00
2018-07-30T03:19:56.533Z,100654.00
2018-07-30T03:22:25.965Z,100658.00
2018-07-30T03:24:55.165Z,100654.00
2018-07-30T03:27:24.266Z,100651.00
2018-07-30T03:29:53.408Z,100651.00
2018-07-30T03:32:22.528Z,100642.00
2018-07-30T03:34:51.894Z,100641.00
2018-07-30T03:37:20.955Z,100638.00
2018-07-30T03:39:50.037Z,100640.00
2018-07-30T03:42:19.151Z,100649.00
2018-07-30T03:44:48.169Z,100652.00
2018-07-30T03:47:17.245Z,100649.00
2018-07-30T03:49:46.391Z,100643.00
2018-07-30T03:52:15.642Z,100647.00
2018-07-30T03:54:44.553Z,100641.00
2018-07-30T03:57:13.633Z,100649.00
2018-07-30T03:59:42.724Z,100642.00
2018-07-30T04:02:12.318Z,100648.00
2018-07-30T04:04:41.501Z,100655.00
2018-07-30T04:07:10.752Z,100658.00
2018-07-30T04:09:39.866Z,100658.00
2018-07-30T04:12:09.227Z,100655.00
2018-07-30T04:14:38.322Z,100656.00
2018-07-30T04:17:07.517Z,100654.00
2018-07-30T04:19:36.589Z,100660.00
2018-07-30T04:22:05.765Z,100660.00
2018-07-30T04:24:34.881Z,100663.00
2018-07-30T04:27:03.962Z,100665.00
2018-07-30T04:29:33.088Z,100657.00
2018-07-30T04:32:02.230Z,100660.00
2018-07-30T04:34:31.362Z,100656.00
2018-07-30T04:37:00.660Z,100663.00
2018-07-30T04:39:29.842Z,100653.00
2018-07-30T04:41:59.116Z,100657.00
2018-07-30T04:44:28.205Z,100668.00
2018-07-30T04:46:57.298Z,100659.00
2018-07-30T04:49:26.447Z,100654.00
2018-07-30T04:51:55.642Z,100662.00
2018-07-30T04:54:24.726Z,100664.00
2018-07-30T04:56:53.979Z,100666.00
2018-07-30T04:59:23.085Z,100675.00
2018-07-30T05:01:52.645Z,100669.00
2018-07-30T05:04:21.991Z,100679.00
2018-07-30T05:06:51.390Z,100672.00
2018-07-30T05:09:20.732Z,100686.00
2018-07-30T05:11:49.930Z,100687.00
2018-07-30T05:14:19.083Z,100676.00
2018-07-30T05:16:48.194Z,100687.00
2018-07-30T05:19:17.348Z,100691.00
2018-07-30T05:21:46.440Z,100692.00
2018-07-30T05:24:15.564Z,100686.00
2018-07-30T05:26:44.726Z,100697.00
2018-07-30T05:29:13.908Z,100693.00
2018-07-30T05:31:43.134Z,100681.00
2018-07-30T05:34:12.226Z,100693.00
2018-07-30T05:36:41.321Z,100694.00
2018-07-30T05:39:11.463Z,100690.00
2018-07-30T05:41:41.083Z,100686.00
2018-07-30T05:44:10.180Z,100698.00
2018-07-30T05:46:39.303Z,100693.00
2018-07-30T05:49:08.495Z,100700.00
2018-07-30T05:51:37.566Z,100702.00
2018-07-30T05:54:06.772Z,100701.00
2018-07-30T05:56:35.828Z,100701.00
2018-07-30T05:59:05.026Z,100704.00
2018-07-30T06:01:34.383Z,100702.00
2018-07-30T06:04:03.574Z,100703.00
2018-07-30T06:06:33.114Z,100705.00
2018-07-30T06:09:02.956Z,100711.00
2018-07-30T06:11:32.154Z,100717.00
2018-07-30T06:14:01.780Z,100711.00
2018-07-30T06:16:31.407Z,100718.00
2018-07-30T06:19:00.849Z,100725.00
2018-07-30T06:21:30.057Z,100728.00
2018-07-30T06:23:59.190Z,100734.00
2018-07-30T06:26:28.443Z,100737.00
2018-07-30T06:28:57.509Z,100731.00
2018-07-30T06:31:26.604Z,100737.00
2018-07-30T06:33:55.847Z,100714.00
2018-07-30T06:36:25.094Z,100743.00
2018-07-30T06:38:54.181Z,100737.00
2018-07-30T06:41:23.203Z,100737.00
2018-07-30T06:43:52.435Z,100749.00
2018-07-30T06:46:21.492Z,100744.00
2018-07-30T06:48:50.644Z,100752.00
2018-07-30T06:51:19.780Z,100749.00
2018-07-30T06:53:49.034Z,100755.00
2018-07-30T06:56:18.174Z,100760.00
2018-07-30T06:58:47.287Z,100757.00
2018-07-30T07:01:16.314Z,100758.00
2018-07-30T07:03:45.413Z,100772.00
2018-07-30T07:06:14.554Z,100777.00
2018-07-30T07:08:43.665Z,100773.00
2018-07-30T07:11:12.963Z,100776.00
2018-07-30T07:13:42.254Z,100769.00
2018-07-30T07:16:11.533Z,100780.00
2018-07-30T07:18:40.754Z,100786.00
2018-07-30T07:21:10.252Z,100783.00
2018-07-30T07:23:39.322Z,100773.00
2018-07-30T07:26:08.543Z,100784.00
2018-07-30T07:28:37.614Z,100786.00
2018-07-30T07:31:06.789Z,100784.00
2018-07-30T07:33:36.008Z,100794.00
2018-07-30T07:36:05.109Z,100796.00
2018-07-30T07:38:34.260Z,100787.00
2018-07-30T07:41:03.310Z,100791.00
2018-07-30T07:43:32.408Z,100792.00
2018-07-30T07:46:01.507Z,100800.00
2018-07-30T07:48:30.655Z,100800.00
2018-07-30T07:50:59.916Z,100808.00
2018-07-30T07:53:29.193Z,100812.00
2018-07-30T07:55:58.614Z,100811.00
2018-07-30T07:58:27.700Z,100803.00
2018-07-30T08:00:57.063Z,100806.00
2018-07-30T08:03:26.558Z,100803.00
2018-07-30T08:05:55.731Z,100802.00
2018-07-30T08:08:25.096Z,100800.00
2018-07-30T08:10:54.344Z,100799.00
2018-07-30T08:13:23.531Z,100800.00
2018-07-30T08:15:52.693Z,100808.00
2018-07-30T08:18:22.240Z,100810.00
2018-07-30T08:20:51.724Z,100810.00
2018-07-30T08:23:21.804Z,100812.00
2018-07-30T08:25:51.119Z,100813.00
2018-07-30T08:28:20.322Z,100814.00
2018-07-30T08:30:49.489Z,100819.00
2018-07-30T08:33:18.309Z,100835.00
2018-07-30T08:35:47.441Z,100828.00
2018-07-30T08:38:16.548Z,100821.00
2018-07-30T08:40:46.016Z,100831.00
2018-07-30T08:43:15.141Z,100832.00
2018-07-30T08:45:44.276Z,100829.00
2018-07-30T08:48:13.326Z,100826.00
2018-07-30T08:50:42.407Z,100835.00
2018-07-30T08:53:12.368Z,100836.00
2018-07-30T08:55:41.453Z,100829.00
2018-07-30T08:58:10.600Z,100826.00
2018-07-30T09:00:39.743Z,100824.00
2018-07-30T09:03:08.820Z,100828.00
2018-07-30T09:05:37.914Z,100831.00
2018-07-30T09:08:07.244Z,100822.00
2018-07-30T09:10:36.568Z,100833.00
2018-07-30T09:13:06.467Z,100833.00
2018-07-30T09:15:35.589Z,100831.00
2018-07-30T09:18:04.988Z,100831.00
2018-07-30T09:20:34.272Z,100834.00
2018-07-30T09:23:03.409Z,100845.00
2018-07-30T09:25:32.770Z,100844.00
2018-07-30T09:28:02.557Z,100850.00
2018-07-30T09:30:31.949Z,100846.00
2018-07-30T09:33:02.199Z,100839.00
2018-07-30T09:35:31.212Z,100839.00
2018-07-30T09:38:00.253Z,100844.00
2018-07-30T09:40:29.385Z,100845.00
2018-07-30T09:42:58.504Z,100858.00
2018-07-30T09:45:27.587Z,100855.00
2018-07-30T09:47:56.789Z,100852.00
2018-07-30T09:50:25.995Z,100853.00
2018-07-30T09:52:55.132Z,100859.00
2018-07-30T09:55:24.447Z,100859.00
2018-07-30T09:57:53.916Z,100858.00
2018-07-30T10:00:28.331Z,100862.00
2018-07-30T10:02:57.472Z,100866.00
2018-07-30T10:05:26.764Z,100864.00
2018-07-30T10:07:56.006Z,100873.00
2018-07-30T10:10:25.198Z,100872.00
2018-07-30T10:12:54.307Z,100868.00
2018-07-30T10:15:23.478Z,100875.00
2018-07-30T10:17:52.601Z,100873.00
2018-07-30T10:20:21.728Z,100874.00
2018-07-30T10:22:50.773Z,100875.00
2018-07-30T10:25:19.846Z,100868.00
2018-07-30T10:27:48.964Z,100876.00
2018-07-30T10:30:18.082Z,100871.00
2018-07-30T10:32:47.240Z,100869.00
2018-07-30T10:35:16.440Z,100867.00
2018-07-30T10:37:45.754Z,100863.00
2018-07-30T10:40:15.182Z,100867.00
2018-07-30T10:42:44.559Z,100866.00
2018-07-30T10:45:13.875Z,100864.00
2018-07-30T10:47:42.973Z,100856.00
2018-07-30T10:50:12.384Z,100859.00
2018-07-30T10:52:41.451Z,100859.00
2018-07-30T10:55:10.576Z,100860.00
2018-07-30T10:57:40.034Z,100864.00
2018-07-30T11:00:09.266Z,100865.00
2018-07-30T11:02:38.805Z,100866.00
2018-07-30T11:05:09.015Z,100854.00
2018-07-30T11:07:38.288Z,100854.00
2018-07-30T11:10:07.461Z,100852.00
2018-07-30T11:12:36.582Z,100849.00
2018-07-30T11:15:06.065Z,100855.00
2018-07-30T11:17:35.175Z,100848.00
2018-07-30T11:20:04.594Z,100843.00
2018-07-30T11:22:33.877Z,100845.00
2018-07-30T11:25:03.199Z,100844.00
2018-07-30T11:27:32.419Z,100845.00
2018-07-30T11:30:01.587Z,100847.00
2018-07-30T11:32:31.903Z,100846.00
2018-07-30T11:35:01.278Z,100843.00
2018-07-30T11:37:30.642Z,100839.00
2018-07-30T11:40:00.127Z,100844.00
2018-07-30T11:42:29.321Z,100849.00
2018-07-30T11:44:58.752Z,100839.00
2018-07-30T11:47:28.032Z,100833.00
2018-07-30T11:49:57.430Z,100839.00
2018-07-30T11:52:26.792Z,100834.00
2018-07-30T11:54:56.308Z,100838.00
2018-07-30T11:57:25.746Z,100833.00
2018-07-30T11:59:55.427Z,100833.00
2018-07-30T12:02:24.546Z,100835.00
2018-07-30T12:04:53.661Z,100827.00
2018-07-30T12:07:22.731Z,100829.00
2018-07-30T12:09:52.707Z,100832.00
2018-07-30T12:12:21.887Z,100830.00
2018-07-30T12:14:51.033Z,100821.00
2018-07-30T12:17:20.435Z,100828.00
2018-07-30T12:19:49.540Z,100827.00
2018-07-30T12:22:18.679Z,100819.00
2018-07-30T12:24:47.862Z,100821.00
2018-07-30T12:27:17.225Z,100823.00
2018-07-30T12:29:46.316Z,100832.00
2018-07-30T12:32:15.495Z,100830.00
2018-07-30T12:34:44.602Z,100817.00
2018-07-30T12:37:13.694Z,100816.00
2018-07-30T12:39:42.904Z,100820.00
2018-07-30T12:42:12.070Z,100817.00
2018-07-30T12:44:41.215Z,100818.00
2018-07-30T12:47:10.670Z,100816.00
2018-07-30T12:49:39.810Z,100814.00
2018-07-30T12:52:08.985Z,100817.00
2018-07-30T12:54:38.285Z,100809.00
2018-07-30T12:57:07.826Z,100822.00
2018-07-30T12:59:37.421Z,100824.00
2018-07-30T13:02:06.551Z,100813.00
2018-07-30T13:04:35.658Z,100809.00
2018-07-30T13:07:04.813Z,100813.00
2018-07-30T13:09:33.968Z,100814.00
2018-07-30T13:12:03.034Z,100801.00
2018-07-30T13:14:32.130Z,100810.00
2018-07-30T13:17:01.387Z,100805.00
2018-07-30T13:19:30.635Z,100804.00
2018-07-30T13:21:59.718Z,100794.00
2018-07-30T13:24:28.785Z,100804.00
2018-07-30T13:28:24.282Z,100800.00
2018-07-30T13:30:53.444Z,100800.00
2018-07-30T13:33:22.672Z,100802.00
2018-07-30T13:35:51.818Z,100791.00
2018-07-30T13:38:20.987Z,100791.00
2018-07-30T13:40:50.136Z,100793.00
2018-07-30T13:43:19.356Z,100797.00
2018-07-30T13:45:48.585Z,100791.00
2018-07-30T13:48:18.624Z,100783.00
2018-07-30T13:50:47.980Z,100789.00
2018-07-30T13:53:17.140Z,100791.00
2018-07-30T13:55:46.393Z,100792.00
2018-07-30T13:58:15.573Z,100791.00
2018-07-30T14:00:44.968Z,100788.00
2018-07-30T14:03:14.318Z,100787.00
2018-07-30T14:05:43.737Z,100786.00
2018-07-30T14:08:13.061Z,100790.00
2018-07-30T14:10:42.079Z,100782.00
2018-07-30T14:13:11.534Z,100789.00
2018-07-30T14:15:40.845Z,100785.00
2018-07-30T14:18:09.975Z,100782.00
2018-07-30T14:20:39.096Z,100779.00
2018-07-30T14:23:08.465Z,100772.00
2018-07-30T14:25:37.561Z,100776.00
2018-07-30T14:28:07.052Z,100777.00
2018-07-30T14:30:36.168Z,100773.00
2018-07-30T14:33:05.357Z,100769.00
2018-07-30T14:35:34.856Z,100772.00
2018-07-30T14:38:04.510Z,100770.00
2018-07-30T14:40:33.710Z,100771.00
2018-07-30T14:43:02.832Z,100759.00
2018-07-30T14:45:31.975Z,100757.00
2018-07-30T14:48:01.129Z,100755.00
2018-07-30T14:50:30.330Z,100755.00
2018-07-30T14:52:59.902Z,100758.00
2018-07-30T14:55:29.263Z,100756.00
2018-07-30T14:57:58.648Z,100746.00
2018-07-30T15:00:27.897Z,100751.00
2018-07-30T15:02:57.171Z,100671.00
2018-07-30T15:05:26.987Z,100746.00
2018-07-30T15:07:56.140Z,100730.00
2018-07-30T15:10:25.295Z,100748.00
2018-07-30T15:12:54.643Z,100741.00
2018-07-30T15:15:23.901Z,100750.00
2018-07-30T15:17:53.065Z,100738.00
2018-07-30T15:20:22.137Z,100739.00
2018-07-30T15:22:51.391Z,100740.00
2018-07-30T15:25:20.582Z,100744.00
2018-07-30T15:27:49.673Z,100735.00
2018-07-30T15:30:18.857Z,100733.00
2018-07-30T15:32:48.009Z,100734.00
2018-07-30T15:35:17.268Z,100732.00
2018-07-30T15:37:46.734Z,100732.00
2018-07-30T15:40:15.850Z,100724.00
2018-07-30T15:42:44.947Z,100729.00
2018-07-30T15:45:14.117Z,100732.00
2018-07-30T15:47:44.070Z,100728.00
2018-07-30T15:50:13.321Z,100733.00
2018-07-30T15:52:42.727Z,100731.00
2018-07-30T15:55:11.953Z,100729.00
2018-07-30T15:57:41.984Z,100722.00
2018-07-30T16:00:11.343Z,100719.00
2018-07-30T16:02:41.709Z,100724.00
2018-07-30T16:05:16.056Z,100714.00
2018-07-30T16:07:48.436Z,100713.00
2018-07-30T16:10:17.625Z,100711.00
2018-07-30T16:12:46.941Z,100714.00
2018-07-30T16:15:16.107Z,100712.00
2018-07-30T16:17:45.351Z,100701.00
2018-07-30T16:20:14.573Z,100708.00
2018-07-30T16:22:43.704Z,100700.00
2018-07-30T16:25:13.003Z,100702.00
2018-07-30T16:27:42.484Z,100702.00
2018-07-30T16:30:12.000Z,100700.00
2018-07-30T16:32:41.395Z,100699.00
2018-07-30T16:35:11.333Z,100694.00
2018-07-30T16:37:41.097Z,100702.00
2018-07-30T16:40:13.998Z,100698.00
2018-07-30T16:42:43.420Z,100691.00
2018-07-30T16:45:12.926Z,100697.00
2018-07-30T16:47:42.181Z,100686.00
2018-07-30T16:50:11.958Z,100688.00
2018-07-30T16:52:41.276Z,100692.00
2018-07-30T16:55:10.516Z,100691.00
2018-07-30T16:57:39.616Z,100692.00
2018-07-30T17:00:11.552Z,100695.00
2018-07-30T17:02:40.697Z,100700.00
2018-07-30T17:05:09.997Z,100705.00
2018-07-30T17:07:39.443Z,100705.00
2018-07-30T17:10:08.578Z,100706.00
2018-07-30T17:12:37.861Z,100707.00
2018-07-30T17:15:07.688Z,100713.00
2018-07-30T17:17:36.836Z,100710.00
2018-07-30T17:20:09.874Z,100707.00
2018-07-30T17:22:39.246Z,100711.00
2018-07-30T17:25:08.766Z,100710.00
2018-07-30T17:27:37.945Z,100695.00
2018-07-30T17:30:07.957Z,100707.00
2018-07-30T17:32:37.216Z,100709.00
2018-07-30T17:35:06.623Z,100705.00
2018-07-30T17:37:36.085Z,100716.00
2018-07-30T17:40:07.237Z,100713.00
2018-07-30T17:42:36.637Z,100716.00
2018-07-30T17:45:07.224Z,100712.00
2018-07-30T17:47:36.450Z,100710.00
2018-07-30T17:50:06.506Z,100716.00
2018-07-30T17:52:35.736Z,100724.00
2018-07-30T17:55:04.995Z,100722.00
2018-07-30T17:57:34.173Z,100724.00
2018-07-30T18:00:03.436Z,100725.00
2018-07-30T18:02:32.675Z,100727.00
2018-07-30T18:05:02.117Z,100726.00
2018-07-30T18:07:31.400Z,100730.00
2018-07-30T18:10:00.686Z,100726.00
2018-07-30T18:12:30.269Z,100726.00
2018-07-30T18:14:59.616Z,100723.00
2018-07-30T18:17:29.007Z,100728.00
2018-07-30T18:19:58.437Z,100724.00
2018-07-30T18:22:28.088Z,100718.00
2018-07-30T18:24:57.454Z,100722.00
2018-07-30T18:27:26.768Z,100727.00
2018-07-30T18:29:56.257Z,100727.00
2018-07-30T18:32:25.266Z,100725.00
2018-07-30T18:34:54.439Z,100729.00
2018-07-30T18:37:23.826Z,100729.00
2018-07-30T18:39:53.425Z,100732.00
2018-07-30T18:42:22.601Z,100731.00
2018-07-30T18:44:51.854Z,100725.00
2018-07-30T18:47:21.133Z,100730.00
2018-07-30T18:49:50.482Z,100738.00
2018-07-30T18:52:19.711Z,100738.00
2018-07-30T18:54:48.997Z,100737.00
2018-07-30T18:57:18.165Z,100743.00
2018-07-30T18:59:47.442Z,100743.00
2018-07-30T19:02:16.728Z,100746.00
2018-07-30T19:04:45.724Z,100751.00
2018-07-30T19:07:15.408Z,100750.00
2018-07-30T19:09:44.798Z,100751.00
2018-07-30T19:12:14.195Z,100754.00
2018-07-30T19:14:43.723Z,100762.00
2018-07-30T19:17:14.050Z,100765.00
2018-07-30T19:19:43.278Z,100767.00
2018-07-30T19:22:12.601Z,100770.00
2018-07-30T19:24:41.757Z,100769.00
2018-07-30T19:27:11.033Z,100779.00
2018-07-30T19:29:40.386Z,100777.00
2018-07-30T19:32:09.714Z,100767.00
2018-07-30T19:34:39.215Z,100767.00
2018-07-30T19:37:08.730Z,100774.00
2018-07-30T19:39:38.265Z,100775.00
2018-07-30T19:42:07.628Z,100781.00
2018-07-30T19:44:37.328Z,100782.00
2018-07-30T19:47:06.847Z,100787.00
2018-07-30T19:49:36.277Z,100786.00
2018-07-30T19:52:05.885Z,100784.00
2018-07-30T19:54:35.267Z,100789.00
2018-07-30T19:57:10.385Z,100790.00
2018-07-30T19:59:39.810Z,100774.00
2018-07-30T20:02:09.166Z,100787.00
2018-07-30T20:04:38.493Z,100775.00
2018-07-30T20:07:08.012Z,100786.00
2018-07-30T20:09:37.393Z,100794.00
2018-07-30T20:12:06.873Z,100793.00
2018-07-30T20:14:36.460Z,100787.00
2018-07-30T20:17:05.760Z,100789.00
2018-07-30T20:19:35.192Z,100796.00
2018-07-30T20:22:04.383Z,100795.00
2018-07-30T20:24:33.658Z,100800.00
2018-07-30T20:27:02.841Z,100798.00
2018-07-30T20:29:32.095Z,100796.00
2018-07-30T20:32:01.325Z,100791.00
2018-07-30T20:34:30.466Z,100798.00
2018-07-30T20:36:59.701Z,100797.00
2018-07-30T20:39:28.840Z,100797.00
2018-07-30T20:41:57.985Z,100797.00
2018-07-30T20:44:27.110Z,100807.00
2018-07-30T20:46:56.310Z,100800.00
2018-07-30T20:49:25.471Z,100793.00
2018-07-30T20:51:54.596Z,100798.00
2018-07-30T20:54:23.826Z,100797.00
2018-07-30T20:56:53.037Z,100804.00
2018-07-30T20:59:22.441Z,100796.00
2018-07-30T21:01:51.630Z,100801.00
2018-07-30T21:04:20.899Z,100794.00
2018-07-30T21:06:50.078Z,100798.00
2018-07-30T21:09:19.817Z,100798.00
2018-07-30T21:11:48.706Z,100798.00
2018-07-30T21:14:19.316Z,100804.00
2018-07-30T21:16:53.484Z,100810.00
2018-07-30T21:19:23.981Z,100814.00
2018-07-30T21:21:54.399Z,100817.00
2018-07-30T21:24:24.755Z,100804.00
2018-07-30T21:26:57.240Z,100808.00
2018-07-30T21:29:26.698Z,100807.00
2018-07-30T21:31:55.888Z,100804.00
2018-07-30T21:34:25.224Z,100797.00
2018-07-30T21:36:54.583Z,100801.00
2018-07-30T21:39:23.964Z,100797.00
2018-07-30T21:41:53.272Z,100796.00
2018-07-30T21:44:22.481Z,100810.00
2018-07-30T21:46:51.642Z,100801.00
2018-07-30T21:49:20.756Z,100795.00
2018-07-30T21:51:49.897Z,100794.00
2018-07-30T21:54:19.595Z,100796.00
2018-07-30T21:56:48.669Z,100798.00
2018-07-30T21:59:17.873Z,100802.00
2018-07-30T22:01:46.920Z,100804.00
2018-07-30T22:04:16.018Z,100797.00
2018-07-30T22:06:45.104Z,100802.00
2018-07-30T22:09:14.264Z,100807.00
2018-07-30T22:11:43.408Z,100766.00
2018-07-30T22:14:12.528Z,100801.00
2018-07-30T22:16:41.667Z,100811.00
2018-07-30T22:19:10.871Z,100805.00
2018-07-30T22:21:40.125Z,100808.00
2018-07-30T22:24:09.618Z,100814.00
2018-07-30T22:26:38.699Z,100797.00
2018-07-30T22:29:07.796Z,100816.00
2018-07-30T22:31:36.874Z,100814.00
2018-07-30T22:34:06.133Z,100820.00
2018-07-30T22:36:35.306Z,100809.00
2018-07-30T22:39:06.618Z,100812.00
2018-07-30T22:41:35.935Z,100811.00
2018-07-30T22:44:05.339Z,100814.00
2018-07-30T22:46:34.605Z,100811.00
2018-07-30T22:49:03.944Z,100750.00
2018-07-30T22:51:33.133Z,100818.00
2018-07-30T22:54:09.827Z,100813.00
2018-07-30T22:56:39.228Z,100813.00
2018-07-30T22:59:08.121Z,100817.00
2018-07-30T23:01:37.711Z,100824.00
2018-07-30T23:04:18.135Z,100817.00
2018-07-30T23:06:47.217Z,100815.00
2018-07-30T23:09:16.410Z,100812.00
2018-07-30T23:11:45.503Z,100810.00
2018-07-30T23:14:25.371Z,100821.00
2018-07-30T23:16:54.519Z,100812.00
2018-07-30T23:19:23.644Z,100806.00
2018-07-30T23:21:52.808Z,100820.00
2018-07-30T23:24:21.913Z,100806.00
2018-07-30T23:26:51.029Z,100816.00
2018-07-30T23:29:20.175Z,100814.00
2018-07-30T23:31:49.284Z,100812.00
2018-07-30T23:34:18.159Z,100808.00
2018-07-30T23:36:47.269Z,100801.00
2018-07-30T23:39:16.322Z,100807.00
2018-07-30T23:41:45.491Z,100803.00
2018-07-30T23:44:14.866Z,100811.00
2018-07-30T23:46:44.170Z,100805.00
2018-07-30T23:49:13.482Z,100807.00
2018-07-30T23:51:42.801Z,100814.00
2018-07-30T23:54:12.073Z,100811.00
2018-07-30T23:56:41.134Z,100805.00
2018-07-30T23:59:10.319Z,100797.00
